createdAt,value
2019-02-22T00:00:09.041Z,8.00
2019-02-22T00:01:10.031Z,4.00
2019-02-22T00:02:09.026Z,8.00
2019-02-22T00:03:10.001Z,4.00
2019-02-22T00:04:10.027Z,8.00
2019-02-22T00:05:09.985Z,4.00
2019-02-22T00:06:08.973Z,8.00
2019-02-22T00:07:08.989Z,4.00
2019-02-22T00:08:08.953Z,8.00
2019-02-22T00:09:09.981Z,4.00
2019-02-22T00:10:09.938Z,8.00
2019-02-22T00:11:09.937Z,8.00
2019-02-22T00:12:09.935Z,4.00
2019-02-22T00:13:09.919Z,8.00
2019-02-22T00:14:08.887Z,4.00
2019-02-22T00:15:09.877Z,8.00
2019-02-22T00:16:09.855Z,4.00
2019-02-22T00:17:09.847Z,4.00
2019-02-22T00:18:09.880Z,8.00
2019-02-22T00:19:09.857Z,4.00
2019-02-22T00:20:08.817Z,4.00
2019-02-22T00:21:09.805Z,4.00
2019-02-22T00:22:08.797Z,4.00
2019-02-22T00:23:09.777Z,4.00
2019-02-22T00:24:08.819Z,8.00
2019-02-22T00:25:09.789Z,4.00
2019-02-22T00:26:11.118Z,4.00
2019-02-22T00:28:08.729Z,4.00
2019-02-22T00:29:09.721Z,4.00
2019-02-22T00:30:08.706Z,4.00
2019-02-22T00:31:09.729Z,4.00
2019-02-22T00:32:09.685Z,4.00
2019-02-22T00:33:11.183Z,4.00
2019-02-22T00:34:09.686Z,4.00
2019-02-22T00:35:09.716Z,8.00
2019-02-22T00:36:09.639Z,8.00
2019-02-22T00:37:09.641Z,8.00
2019-02-22T00:38:08.643Z,4.00
2019-02-22T00:39:08.609Z,4.00
2019-02-22T00:40:09.610Z,4.00
2019-02-22T00:41:09.578Z,4.00
2019-02-22T00:42:09.578Z,4.00
2019-02-22T00:43:09.571Z,4.00
2019-02-22T00:44:09.545Z,4.00
2019-02-22T00:45:09.550Z,4.00
2019-02-22T00:46:09.597Z,4.00
2019-02-22T00:47:09.529Z,4.00
2019-02-22T00:48:12.344Z,4.00
2019-02-22T00:49:09.499Z,4.00
2019-02-22T00:50:09.481Z,4.00
2019-02-22T00:51:08.479Z,4.00
2019-02-22T00:52:08.501Z,4.00
2019-02-22T00:53:08.449Z,4.00
2019-02-22T00:54:09.455Z,4.00
2019-02-22T00:55:09.454Z,4.00
2019-02-22T00:56:09.419Z,4.00
2019-02-22T00:57:08.408Z,4.00
2019-02-22T00:58:09.398Z,4.00
2019-02-22T00:59:08.394Z,4.00
2019-02-22T01:00:09.425Z,4.00
2019-02-22T01:01:09.364Z,4.00
2019-02-22T01:02:08.353Z,4.00
2019-02-22T01:03:08.346Z,4.00
2019-02-22T01:04:09.334Z,4.00
2019-02-22T01:05:08.318Z,4.00
2019-02-22T01:06:09.476Z,4.00
2019-02-22T01:07:08.298Z,4.00
2019-02-22T01:08:09.295Z,4.00
2019-02-22T01:09:09.274Z,4.00
2019-02-22T01:10:09.286Z,4.00
2019-02-22T01:11:09.316Z,4.00
2019-02-22T01:12:08.297Z,4.00
2019-02-22T01:13:09.229Z,4.00
2019-02-22T01:14:09.225Z,4.00
2019-02-22T01:15:09.211Z,4.00
2019-02-22T01:16:09.198Z,4.00
2019-02-22T01:17:09.210Z,4.00
2019-02-22T01:18:09.173Z,4.00
2019-02-22T01:19:09.166Z,4.00
2019-02-22T01:20:08.152Z,4.00
2019-02-22T01:21:09.145Z,4.00
2019-02-22T01:22:08.150Z,4.00
2019-02-22T01:23:09.175Z,4.00
2019-02-22T01:24:09.111Z,4.00
2019-02-22T01:25:09.100Z,4.00
2019-02-22T01:26:08.102Z,4.00
2019-02-22T01:27:09.081Z,4.00
2019-02-22T01:28:09.086Z,4.00
2019-02-22T01:29:09.081Z,4.00
2019-02-22T01:30:09.061Z,4.00
2019-02-22T01:31:09.031Z,4.00
2019-02-22T01:32:09.026Z,4.00
2019-02-22T01:33:09.014Z,4.00
2019-02-22T01:34:09.002Z,4.00
2019-02-22T01:35:09.003Z,4.00
2019-02-22T01:36:07.980Z,4.00
2019-02-22T01:37:07.969Z,4.00
2019-02-22T01:38:07.984Z,4.00
2019-02-22T01:39:07.950Z,4.00
2019-02-22T01:40:07.934Z,4.00
2019-02-22T01:41:08.940Z,4.00
2019-02-22T01:42:10.750Z,4.00
2019-02-22T01:43:07.898Z,4.00
2019-02-22T01:44:08.933Z,4.00
2019-02-22T01:45:08.897Z,4.00
2019-02-22T01:46:08.871Z,4.00
2019-02-22T01:47:08.859Z,4.00
2019-02-22T01:48:08.849Z,4.00
2019-02-22T01:49:07.865Z,4.00
2019-02-22T01:50:07.830Z,4.00
2019-02-22T01:51:08.854Z,4.00
2019-02-22T01:52:08.799Z,4.00
2019-02-22T01:53:08.801Z,4.00
2019-02-22T01:54:08.783Z,8.00
2019-02-22T01:55:07.779Z,4.00
2019-02-22T01:56:08.794Z,4.00
2019-02-22T01:57:08.751Z,4.00
2019-02-22T01:58:07.738Z,4.00
2019-02-22T01:59:07.735Z,4.00
2019-02-22T02:00:08.713Z,4.00
2019-02-22T02:01:08.745Z,4.00
2019-02-22T02:02:08.688Z,4.00
2019-02-22T02:03:08.675Z,4.00
2019-02-22T02:04:08.702Z,4.00
2019-02-22T02:06:07.685Z,4.00
2019-02-22T02:07:07.650Z,4.00
2019-02-22T02:08:08.628Z,4.00
2019-02-22T02:09:08.249Z,4.00
2019-02-22T02:10:08.602Z,4.00
2019-02-22T02:11:07.630Z,4.00
2019-02-22T02:12:08.581Z,4.00
2019-02-22T02:13:08.574Z,4.00
2019-02-22T02:14:08.560Z,4.00
2019-02-22T02:15:08.555Z,4.00
2019-02-22T02:16:08.562Z,4.00
2019-02-22T02:17:08.558Z,4.00
2019-02-22T02:18:08.516Z,4.00
2019-02-22T02:19:08.514Z,4.00
2019-02-22T02:20:08.580Z,4.00
2019-02-22T02:21:08.483Z,4.00
2019-02-22T02:22:08.468Z,4.00
2019-02-22T02:23:08.502Z,4.00
2019-02-22T02:24:08.455Z,8.00
2019-02-22T02:25:08.445Z,4.00
2019-02-22T02:26:07.432Z,4.00
2019-02-22T02:27:08.428Z,8.00
2019-02-22T02:28:08.415Z,4.00
2019-02-22T02:29:08.425Z,4.00
2019-02-22T02:30:08.399Z,4.00
2019-02-22T02:31:08.378Z,8.00
2019-02-22T02:32:08.397Z,24.00
2019-02-22T02:33:08.358Z,32.00
2019-02-22T02:34:08.342Z,32.00
2019-02-22T02:35:08.333Z,28.00
2019-02-22T02:36:08.321Z,32.00
2019-02-22T02:37:08.308Z,44.00
2019-02-22T02:38:08.329Z,44.00
2019-02-22T02:39:08.284Z,44.00
2019-02-22T02:40:07.280Z,44.00
2019-02-22T02:41:11.164Z,48.00
2019-02-22T02:42:08.254Z,48.00
2019-02-22T02:43:07.244Z,48.00
2019-02-22T02:44:08.265Z,4.00
2019-02-22T02:45:08.217Z,4.00
2019-02-22T02:46:08.245Z,8.00
2019-02-22T02:47:07.211Z,4.00
2019-02-22T02:48:08.188Z,8.00
2019-02-22T02:49:07.176Z,4.00
2019-02-22T02:50:08.170Z,8.00
2019-02-22T02:51:07.189Z,8.00
2019-02-22T02:52:08.153Z,4.00
2019-02-22T02:53:08.138Z,4.00
2019-02-22T02:54:08.135Z,4.00
2019-02-22T02:55:07.110Z,4.00
2019-02-22T02:56:07.137Z,4.00
2019-02-22T02:57:07.101Z,4.00
2019-02-22T02:58:08.076Z,4.00
2019-02-22T02:59:08.066Z,4.00
2019-02-22T03:00:08.052Z,4.00
2019-02-22T03:01:07.083Z,4.00
2019-02-22T03:02:07.035Z,4.00
2019-02-22T03:03:08.037Z,4.00
2019-02-22T03:04:08.020Z,4.00
2019-02-22T03:05:08.038Z,4.00
2019-02-22T03:06:07.986Z,4.00
2019-02-22T03:07:07.982Z,4.00
2019-02-22T03:08:07.969Z,4.00
2019-02-22T03:09:06.966Z,4.00
2019-02-22T03:10:07.971Z,4.00
2019-02-22T03:11:19.683Z,4.00
2019-02-22T03:12:07.927Z,4.00
2019-02-22T03:13:06.917Z,4.00
2019-02-22T03:14:07.900Z,4.00
2019-02-22T03:15:07.898Z,4.00
2019-02-22T03:16:07.922Z,4.00
2019-02-22T03:17:07.873Z,4.00
2019-02-22T03:18:07.868Z,4.00
2019-02-22T03:19:06.850Z,4.00
2019-02-22T03:20:07.868Z,4.00
2019-02-22T03:21:07.828Z,4.00
2019-02-22T03:22:06.822Z,4.00
2019-02-22T03:23:07.796Z,4.00
2019-02-22T03:24:07.794Z,4.00
2019-02-22T03:25:07.778Z,4.00
2019-02-22T03:26:06.793Z,4.00
2019-02-22T03:27:07.760Z,4.00
2019-02-22T03:28:06.755Z,4.00
2019-02-22T03:29:07.735Z,4.00
2019-02-22T03:31:06.728Z,4.00
2019-02-22T03:32:07.713Z,4.00
2019-02-22T03:33:06.705Z,4.00
2019-02-22T03:34:06.911Z,4.00
2019-02-22T03:35:07.702Z,4.00
2019-02-22T03:37:07.042Z,4.00
2019-02-22T03:39:06.630Z,4.00
2019-02-22T03:40:07.623Z,4.00
2019-02-22T03:41:07.608Z,4.00
2019-02-22T03:42:07.630Z,4.00
2019-02-22T03:43:07.585Z,4.00
2019-02-22T03:44:07.573Z,4.00
2019-02-22T03:45:07.594Z,4.00
2019-02-22T03:46:07.553Z,4.00
2019-02-22T03:47:07.571Z,4.00
2019-02-22T03:48:07.533Z,4.00
2019-02-22T03:49:06.523Z,4.00
2019-02-22T03:50:06.507Z,4.00
2019-02-22T03:51:07.506Z,4.00
2019-02-22T03:52:07.514Z,4.00
2019-02-22T03:53:07.475Z,4.00
2019-02-22T03:55:06.452Z,4.00
2019-02-22T03:56:07.439Z,4.00
2019-02-22T03:57:06.463Z,4.00
2019-02-22T03:58:06.422Z,4.00
2019-02-22T03:59:07.408Z,4.00
2019-02-22T04:00:06.406Z,4.00
2019-02-22T04:01:06.390Z,4.00
2019-02-22T04:03:06.412Z,8.00
2019-02-22T04:04:07.351Z,4.00
2019-02-22T04:05:06.339Z,4.00
2019-02-22T04:06:07.328Z,4.00
2019-02-22T04:07:06.320Z,4.00
2019-02-22T04:08:07.582Z,4.00
2019-02-22T04:09:06.298Z,4.00
2019-02-22T04:10:06.306Z,4.00
2019-02-22T04:11:07.285Z,8.00
2019-02-22T04:12:07.309Z,4.00
2019-02-22T04:13:07.253Z,8.00
2019-02-22T04:14:06.249Z,4.00
2019-02-22T04:15:07.231Z,8.00
2019-02-22T04:16:06.261Z,8.00
2019-02-22T04:17:07.215Z,8.00
2019-02-22T04:18:07.204Z,8.00
2019-02-22T04:19:07.196Z,8.00
2019-02-22T04:20:06.182Z,8.00
2019-02-22T04:21:07.704Z,8.00
2019-02-22T04:22:07.159Z,4.00
2019-02-22T04:23:06.151Z,8.00
2019-02-22T04:24:07.129Z,4.00
2019-02-22T04:25:06.126Z,8.00
2019-02-22T04:26:07.112Z,8.00
2019-02-22T04:27:07.129Z,8.00
2019-02-22T04:28:07.095Z,8.00
2019-02-22T04:29:07.079Z,8.00
2019-02-22T04:30:07.079Z,8.00
2019-02-22T04:31:07.060Z,8.00
2019-02-22T04:32:07.054Z,8.00
2019-02-22T04:33:06.074Z,8.00
2019-02-22T04:34:07.025Z,8.00
2019-02-22T04:35:07.072Z,4.00
2019-02-22T04:36:06.033Z,8.00
2019-02-22T04:37:06.991Z,8.00
2019-02-22T04:38:06.984Z,8.00
2019-02-22T04:39:07.055Z,4.00
2019-02-22T04:40:06.959Z,8.00
2019-02-22T04:41:06.987Z,4.00
2019-02-22T04:42:06.970Z,8.00
2019-02-22T04:43:06.926Z,8.00
2019-02-22T04:44:06.908Z,8.00
2019-02-22T04:45:05.903Z,8.00
2019-02-22T04:46:06.894Z,8.00
2019-02-22T04:47:07.716Z,4.00
2019-02-22T04:48:06.902Z,8.00
2019-02-22T04:49:06.859Z,4.00
2019-02-22T04:50:06.864Z,4.00
2019-02-22T04:51:06.835Z,4.00
2019-02-22T04:52:06.836Z,4.00
2019-02-22T04:53:06.831Z,4.00
2019-02-22T04:54:06.813Z,4.00
2019-02-22T04:55:05.798Z,8.00
2019-02-22T04:56:05.806Z,8.00
2019-02-22T04:57:06.777Z,4.00
2019-02-22T04:58:05.765Z,4.00
2019-02-22T04:59:06.752Z,4.00
2019-02-22T05:00:06.834Z,4.00
2019-02-22T05:01:05.727Z,4.00
2019-02-22T05:02:05.753Z,4.00
2019-02-22T05:03:06.718Z,4.00
2019-02-22T05:04:06.697Z,4.00
2019-02-22T05:05:06.690Z,4.00
2019-02-22T05:06:06.683Z,4.00
2019-02-22T05:07:06.682Z,4.00
2019-02-22T05:08:06.654Z,4.00
2019-02-22T05:09:05.645Z,4.00
2019-02-22T05:10:05.633Z,4.00
2019-02-22T05:11:05.628Z,4.00
2019-02-22T05:12:10.883Z,4.00
2019-02-22T05:13:06.623Z,4.00
2019-02-22T05:14:06.597Z,4.00
2019-02-22T05:15:12.489Z,4.00
2019-02-22T05:16:06.576Z,4.00
2019-02-22T05:17:06.602Z,4.00
2019-02-22T05:18:06.546Z,4.00
2019-02-22T05:19:05.533Z,4.00
2019-02-22T05:20:06.522Z,4.00
2019-02-22T05:22:05.543Z,4.00
2019-02-22T05:23:07.571Z,4.00
2019-02-22T05:24:06.481Z,4.00
2019-02-22T05:25:06.464Z,4.00
2019-02-22T05:26:06.463Z,4.00
2019-02-22T05:27:06.477Z,4.00
2019-02-22T05:28:06.440Z,4.00
2019-02-22T05:29:06.424Z,4.00
2019-02-22T05:30:06.423Z,4.00
2019-02-22T05:31:06.407Z,4.00
2019-02-22T05:32:06.388Z,4.00
2019-02-22T05:33:06.419Z,4.00
2019-02-22T05:34:05.376Z,4.00
2019-02-22T05:35:06.354Z,4.00
2019-02-22T05:36:07.415Z,4.00
2019-02-22T05:37:05.363Z,4.00
2019-02-22T05:38:06.337Z,4.00
2019-02-22T05:39:18.069Z,4.00
2019-02-22T05:40:06.344Z,4.00
2019-02-22T05:41:05.302Z,4.00
2019-02-22T05:42:06.287Z,4.00
2019-02-22T05:43:06.274Z,4.00
2019-02-22T05:44:06.274Z,4.00
2019-02-22T05:45:05.253Z,4.00
2019-02-22T05:46:05.238Z,8.00
2019-02-22T05:47:06.231Z,8.00
2019-02-22T05:48:06.214Z,8.00
2019-02-22T05:49:06.208Z,8.00
2019-02-22T05:50:06.204Z,8.00
2019-02-22T05:51:06.195Z,8.00
2019-02-22T05:52:06.176Z,12.00
2019-02-22T05:53:06.170Z,8.00
2019-02-22T05:54:06.154Z,16.00
2019-02-22T05:55:05.141Z,20.00
2019-02-22T05:56:05.147Z,24.00
2019-02-22T05:57:05.154Z,24.00
2019-02-22T05:58:06.128Z,32.00
2019-02-22T05:59:05.094Z,36.00
2019-02-22T06:00:06.096Z,32.00
2019-02-22T06:01:07.013Z,32.00
2019-02-22T06:02:06.063Z,32.00
2019-02-22T06:03:06.255Z,32.00
2019-02-22T06:04:05.043Z,40.00
2019-02-22T06:05:06.029Z,48.00
2019-02-22T06:06:05.104Z,48.00
2019-02-22T06:07:05.010Z,52.00
2019-02-22T06:08:08.843Z,60.00
2019-02-22T06:09:06.015Z,60.00
2019-02-22T06:10:05.977Z,48.00
2019-02-22T06:11:04.959Z,68.00
2019-02-22T06:12:05.987Z,64.00
2019-02-22T06:13:05.935Z,76.00
2019-02-22T06:14:05.933Z,112.00
2019-02-22T06:15:04.923Z,136.00
2019-02-22T06:16:04.914Z,112.00
2019-02-22T06:17:14.133Z,144.00
2019-02-22T06:18:05.913Z,108.00
2019-02-22T06:19:04.872Z,108.00
2019-02-22T06:20:05.859Z,92.00
2019-02-22T06:21:05.862Z,92.00
2019-02-22T06:22:04.854Z,124.00
2019-02-22T06:23:05.837Z,88.00
2019-02-22T06:24:05.868Z,92.00
2019-02-22T06:25:04.822Z,88.00
2019-02-22T06:26:05.815Z,92.00
2019-02-22T06:27:05.791Z,96.00
2019-02-22T06:28:05.775Z,116.00
2019-02-22T06:29:04.766Z,96.00
2019-02-22T06:30:05.782Z,80.00
2019-02-22T06:31:05.743Z,76.00
2019-02-22T06:32:05.727Z,88.00
2019-02-22T06:33:04.727Z,96.00
2019-02-22T06:34:08.521Z,88.00
2019-02-22T06:35:04.758Z,84.00
2019-02-22T06:36:05.744Z,96.00
2019-02-22T06:37:05.687Z,92.00
2019-02-22T06:38:06.167Z,88.00
2019-02-22T06:39:05.653Z,104.00
2019-02-22T06:40:05.669Z,96.00
2019-02-22T06:41:05.675Z,84.00
2019-02-22T06:42:04.627Z,84.00
2019-02-22T06:43:05.607Z,92.00
2019-02-22T06:44:08.172Z,112.00
2019-02-22T06:45:05.626Z,84.00
2019-02-22T06:46:04.576Z,96.00
2019-02-22T06:47:04.568Z,160.00
2019-02-22T06:48:04.575Z,156.00
2019-02-22T06:49:05.547Z,172.00
2019-02-22T06:50:04.564Z,156.00
2019-02-22T06:51:05.523Z,168.00
2019-02-22T06:52:05.508Z,180.00
2019-02-22T06:53:05.503Z,196.00
2019-02-22T06:54:05.487Z,180.00
2019-02-22T06:55:05.516Z,188.00
2019-02-22T06:56:05.478Z,172.00
2019-02-22T06:57:08.666Z,172.00
2019-02-22T06:58:05.438Z,156.00
2019-02-22T06:59:04.435Z,148.00
2019-02-22T07:00:05.425Z,184.00
2019-02-22T07:01:05.415Z,188.00
2019-02-22T07:02:07.666Z,216.00
2019-02-22T07:03:05.401Z,200.00
2019-02-22T07:04:05.391Z,208.00
2019-02-22T07:05:05.367Z,188.00
2019-02-22T07:06:05.651Z,164.00
2019-02-22T07:07:05.400Z,208.00
2019-02-22T07:08:05.349Z,224.00
2019-02-22T07:09:04.329Z,236.00
2019-02-22T07:10:04.317Z,232.00
2019-02-22T07:11:04.302Z,212.00
2019-02-22T07:12:05.289Z,196.00
2019-02-22T07:13:05.313Z,204.00
2019-02-22T07:14:05.263Z,192.00
2019-02-22T07:15:07.167Z,212.00
2019-02-22T07:16:04.254Z,188.00
2019-02-22T07:17:04.237Z,184.00
2019-02-22T07:18:08.151Z,244.00
2019-02-22T07:19:05.208Z,216.00
2019-02-22T07:20:04.249Z,204.00
2019-02-22T07:21:08.156Z,248.00
2019-02-22T07:22:05.173Z,280.00
2019-02-22T07:23:08.084Z,340.00
2019-02-22T07:24:05.167Z,408.00
2019-02-22T07:25:05.179Z,460.00
2019-02-22T07:26:05.135Z,536.00
2019-02-22T07:27:05.126Z,608.00
2019-02-22T07:28:05.141Z,612.00
2019-02-22T07:29:05.099Z,644.00
2019-02-22T07:30:05.095Z,692.00
2019-02-22T07:31:05.082Z,604.00
2019-02-22T07:32:06.373Z,680.00
2019-02-22T07:33:05.099Z,712.00
2019-02-22T07:34:05.051Z,1092.00
2019-02-22T07:35:05.050Z,884.00
2019-02-22T07:36:05.021Z,1164.00
2019-02-22T07:37:05.022Z,1140.00
2019-02-22T07:38:05.013Z,1032.00
2019-02-22T07:39:05.024Z,1068.00
2019-02-22T07:40:04.983Z,920.00
2019-02-22T07:41:04.977Z,848.00
2019-02-22T07:42:04.965Z,976.00
2019-02-22T07:43:07.929Z,1284.00
2019-02-22T07:44:04.938Z,1448.00
2019-02-22T07:45:04.925Z,1592.00
2019-02-22T07:46:04.909Z,1796.00
2019-02-22T07:47:04.905Z,1804.00
2019-02-22T07:48:04.896Z,1624.00
2019-02-22T07:49:04.005Z,1584.00
2019-02-22T07:50:04.865Z,1636.00
2019-02-22T07:51:04.864Z,1520.00
2019-02-22T07:52:03.850Z,1696.00
2019-02-22T07:53:04.843Z,1576.00
2019-02-22T07:54:03.838Z,1500.00
2019-02-22T07:55:04.936Z,1316.00
2019-02-22T07:56:03.810Z,860.00
2019-02-22T07:57:04.798Z,1132.00
2019-02-22T07:58:04.782Z,1452.00
2019-02-22T07:59:04.803Z,1172.00
2019-02-22T08:00:03.765Z,1688.00
2019-02-22T08:01:03.806Z,1812.00
2019-02-22T08:02:04.736Z,1400.00
2019-02-22T08:03:04.732Z,1236.00
2019-02-22T08:04:03.727Z,1200.00
2019-02-22T08:05:04.709Z,1564.00
2019-02-22T08:06:04.733Z,1660.00
2019-02-22T08:07:04.680Z,1356.00
2019-02-22T08:08:04.671Z,1472.00
2019-02-22T08:09:04.675Z,1376.00
2019-02-22T08:10:04.675Z,1464.00
2019-02-22T08:11:04.661Z,2040.00
2019-02-22T08:12:04.625Z,1596.00
2019-02-22T08:13:03.621Z,1716.00
2019-02-22T08:14:04.616Z,2108.00
2019-02-22T08:15:04.597Z,1652.00
2019-02-22T08:16:03.622Z,1324.00
2019-02-22T08:17:03.574Z,1300.00
2019-02-22T08:18:04.558Z,1040.00
2019-02-22T08:19:04.554Z,620.00
2019-02-22T08:20:03.545Z,628.00
2019-02-22T08:21:04.556Z,620.00
2019-02-22T08:22:04.519Z,752.00
2019-02-22T08:23:04.546Z,1120.00
2019-02-22T08:24:04.500Z,1808.00
2019-02-22T08:25:04.500Z,1708.00
2019-02-22T08:26:04.510Z,2196.00
2019-02-22T08:27:04.464Z,2304.00
2019-02-22T08:28:03.457Z,2300.00
2019-02-22T08:29:04.469Z,2280.00
2019-02-22T08:30:03.430Z,2208.00
2019-02-22T08:31:03.427Z,2128.00
2019-02-22T08:32:04.454Z,1824.00
2019-02-22T08:33:04.402Z,2288.00
2019-02-22T08:34:04.383Z,2612.00
2019-02-22T08:35:04.374Z,2448.00
2019-02-22T08:36:04.361Z,2580.00
2019-02-22T08:37:04.352Z,2492.00
2019-02-22T08:38:04.376Z,2384.00
2019-02-22T08:39:04.332Z,2504.00
2019-02-22T08:40:04.322Z,2432.00
2019-02-22T08:41:04.314Z,2552.00
2019-02-22T08:42:04.304Z,2216.00
2019-02-22T08:43:04.287Z,2032.00
2019-02-22T08:44:04.321Z,2240.00
2019-02-22T08:45:04.267Z,2220.00
2019-02-22T08:46:04.294Z,2108.00
2019-02-22T08:47:04.240Z,1820.00
2019-02-22T08:48:03.256Z,1760.00
2019-02-22T08:49:04.224Z,1932.00
2019-02-22T08:50:03.210Z,2236.00
2019-02-22T08:51:06.814Z,2492.00
2019-02-22T08:52:04.228Z,2696.00
2019-02-22T08:53:04.184Z,2836.00
2019-02-22T08:54:04.198Z,2912.00
2019-02-22T08:55:04.168Z,2980.00
2019-02-22T08:56:04.197Z,2740.00
2019-02-22T08:57:04.147Z,3268.00
2019-02-22T08:58:03.133Z,3044.00
2019-02-22T08:59:04.165Z,3192.00
2019-02-22T09:00:03.107Z,3396.00
2019-02-22T09:01:03.148Z,3712.00
2019-02-22T09:02:04.084Z,3828.00
2019-02-22T09:03:03.080Z,3896.00
2019-02-22T09:04:04.054Z,3976.00
2019-02-22T09:05:04.048Z,3968.00
2019-02-22T09:06:04.043Z,3952.00
2019-02-22T09:07:04.090Z,3952.00
2019-02-22T09:08:03.022Z,3952.00
2019-02-22T09:09:04.036Z,3696.00
2019-02-22T09:10:03.000Z,3452.00
2019-02-22T09:11:02.982Z,3624.00
2019-02-22T09:12:03.963Z,4292.00
2019-02-22T09:13:03.001Z,3720.00
2019-02-22T09:14:03.947Z,2776.00
2019-02-22T09:15:03.941Z,2584.00
2019-02-22T09:16:02.934Z,3352.00
2019-02-22T09:17:03.918Z,2884.00
2019-02-22T09:18:03.931Z,3036.00
2019-02-22T09:19:04.630Z,3576.00
2019-02-22T09:20:03.888Z,3680.00
2019-02-22T09:21:03.920Z,3000.00
2019-02-22T09:22:03.855Z,3716.00
2019-02-22T09:23:03.853Z,4000.00
2019-02-22T09:24:02.847Z,4304.00
2019-02-22T09:25:02.824Z,4220.00
2019-02-22T09:26:02.815Z,4172.00
2019-02-22T09:27:06.616Z,4192.00
2019-02-22T09:28:03.799Z,4388.00
2019-02-22T09:29:02.788Z,4672.00
2019-02-22T09:30:03.777Z,4912.00
2019-02-22T09:31:05.612Z,4640.00
2019-02-22T09:32:03.764Z,4500.00
2019-02-22T09:33:03.876Z,4776.00
2019-02-22T09:34:02.733Z,4956.00
2019-02-22T09:35:03.714Z,4852.00
2019-02-22T09:36:03.703Z,4660.00
2019-02-22T09:37:03.695Z,4596.00
2019-02-22T09:38:02.680Z,4480.00
2019-02-22T09:39:03.706Z,4304.00
2019-02-22T09:40:03.662Z,4308.00
2019-02-22T09:41:03.660Z,4284.00
2019-02-22T09:42:03.643Z,4508.00
2019-02-22T09:43:03.650Z,4404.00
2019-02-22T09:44:03.642Z,4288.00
2019-02-22T09:45:03.617Z,3640.00
2019-02-22T09:46:03.594Z,4188.00
2019-02-22T09:47:02.643Z,4300.00
2019-02-22T09:48:02.579Z,4300.00
2019-02-22T09:49:03.664Z,4332.00
2019-02-22T09:50:02.550Z,3904.00
2019-02-22T09:51:03.567Z,3984.00
2019-02-22T09:52:03.531Z,4348.00
2019-02-22T09:53:03.514Z,3836.00
2019-02-22T09:54:02.547Z,3856.00
2019-02-22T09:55:03.501Z,4416.00
2019-02-22T09:56:03.489Z,3724.00
2019-02-22T09:57:03.488Z,4500.00
2019-02-22T09:58:02.471Z,4516.00
2019-02-22T09:59:03.604Z,4932.00
2019-02-22T10:00:03.430Z,4996.00
2019-02-22T10:01:03.488Z,4744.00
2019-02-22T10:02:03.422Z,4612.00
2019-02-22T10:04:02.438Z,4432.00
2019-02-22T10:05:02.389Z,5076.00
2019-02-22T10:06:02.384Z,5504.00
2019-02-22T10:07:03.366Z,5084.00
2019-02-22T10:08:03.361Z,5284.00
2019-02-22T10:09:04.089Z,5404.00
2019-02-22T10:10:03.344Z,5372.00
2019-02-22T10:11:02.334Z,5356.00
2019-02-22T10:12:03.317Z,5428.00
2019-02-22T10:13:03.304Z,5176.00
2019-02-22T10:14:06.586Z,5124.00
2019-02-22T10:15:03.305Z,4912.00
2019-02-22T10:16:02.266Z,4508.00
2019-02-22T10:17:03.261Z,4772.00
2019-02-22T10:18:03.253Z,4860.00
2019-02-22T10:19:02.237Z,4524.00
2019-02-22T10:20:03.231Z,4316.00
2019-02-22T10:21:03.328Z,4384.00
2019-02-22T10:22:03.201Z,4220.00
2019-02-22T10:23:02.193Z,4708.00
2019-02-22T10:24:03.181Z,4832.00
2019-02-22T10:25:02.172Z,4108.00
2019-02-22T10:26:05.141Z,3720.00
2019-02-22T10:27:03.152Z,4332.00
2019-02-22T10:28:04.092Z,4400.00
2019-02-22T10:29:02.128Z,4184.00
2019-02-22T10:30:03.112Z,4440.00
2019-02-22T10:31:06.094Z,4392.00
2019-02-22T10:32:03.095Z,4252.00
2019-02-22T10:33:03.079Z,3756.00
2019-02-22T10:34:03.063Z,3664.00
2019-02-22T10:35:03.056Z,3228.00
2019-02-22T10:36:03.596Z,3248.00
2019-02-22T10:37:03.060Z,3192.00
2019-02-22T10:38:03.029Z,3500.00
2019-02-22T10:39:02.015Z,3544.00
2019-02-22T10:40:03.000Z,3000.00
2019-02-22T10:41:02.991Z,2508.00
2019-02-22T10:42:02.991Z,2472.00
2019-02-22T10:43:02.997Z,2360.00
2019-02-22T10:44:03.045Z,2132.00
2019-02-22T10:45:02.966Z,2040.00
2019-02-22T10:46:02.938Z,1796.00
2019-02-22T10:47:02.924Z,1700.00
2019-02-22T10:48:02.931Z,1708.00
2019-02-22T10:49:01.943Z,1732.00
2019-02-22T10:50:02.896Z,1732.00
2019-02-22T10:51:02.889Z,1892.00
2019-02-22T10:52:01.877Z,1972.00
2019-02-22T10:53:02.634Z,1756.00
2019-02-22T10:54:01.854Z,1692.00
2019-02-22T10:55:02.866Z,1956.00
2019-02-22T10:56:03.206Z,1804.00
2019-02-22T10:57:02.827Z,1968.00
2019-02-22T10:58:01.802Z,2048.00
2019-02-22T10:59:02.805Z,1904.00
2019-02-22T11:00:02.791Z,1976.00
2019-02-22T11:01:02.777Z,1908.00
2019-02-22T11:02:02.789Z,1808.00
2019-02-22T11:03:02.755Z,1816.00
2019-02-22T11:04:01.792Z,1856.00
2019-02-22T11:05:01.737Z,1700.00
2019-02-22T11:06:01.718Z,1528.00
2019-02-22T11:07:02.741Z,1520.00
2019-02-22T11:08:02.691Z,1488.00
2019-02-22T11:09:02.731Z,1460.00
2019-02-22T11:10:02.677Z,1532.00
2019-02-22T11:11:02.666Z,1580.00
2019-02-22T11:12:01.656Z,1568.00
2019-02-22T11:13:01.647Z,1516.00
2019-02-22T11:14:02.633Z,1556.00
2019-02-22T11:15:02.652Z,1576.00
2019-02-22T11:16:02.609Z,1580.00
2019-02-22T11:17:02.596Z,1536.00
2019-02-22T11:18:02.584Z,1844.00
2019-02-22T11:19:01.571Z,1612.00
2019-02-22T11:20:02.618Z,1512.00
2019-02-22T11:21:01.576Z,1232.00
2019-02-22T11:22:02.574Z,1112.00
2019-02-22T11:23:01.533Z,1184.00
2019-02-22T11:24:01.520Z,1052.00
2019-02-22T11:25:01.506Z,1084.00
2019-02-22T11:26:01.506Z,1044.00
2019-02-22T11:27:02.523Z,1068.00
2019-02-22T11:28:01.486Z,1060.00
2019-02-22T11:29:01.459Z,1048.00
2019-02-22T11:30:02.493Z,1068.00
2019-02-22T11:31:01.457Z,1256.00
2019-02-22T11:32:02.440Z,1420.00
2019-02-22T11:33:02.423Z,1340.00
2019-02-22T11:34:02.410Z,1104.00
2019-02-22T11:35:01.404Z,1056.00
2019-02-22T11:36:01.422Z,1036.00
2019-02-22T11:37:02.386Z,1064.00
2019-02-22T11:38:02.371Z,1164.00
2019-02-22T11:39:02.345Z,1136.00
2019-02-22T11:40:01.356Z,1092.00
2019-02-22T11:41:02.358Z,1092.00
2019-02-22T11:42:02.367Z,1124.00
2019-02-22T11:43:02.311Z,1152.00
2019-02-22T11:44:02.291Z,1208.00
2019-02-22T11:45:02.302Z,1288.00
2019-02-22T11:46:02.277Z,1404.00
2019-02-22T11:47:02.304Z,1488.00
2019-02-22T11:48:08.701Z,1368.00
2019-02-22T11:49:02.264Z,1232.00
2019-02-22T11:50:02.242Z,1160.00
2019-02-22T11:51:01.244Z,1148.00
2019-02-22T11:52:01.315Z,1028.00
2019-02-22T11:53:02.208Z,1072.00
2019-02-22T11:54:02.194Z,1088.00
2019-02-22T11:55:01.190Z,1144.00
2019-02-22T11:56:01.183Z,1156.00
2019-02-22T11:57:01.162Z,1144.00
2019-02-22T11:58:02.177Z,1228.00
2019-02-22T11:59:01.140Z,1292.00
2019-02-22T12:00:02.121Z,1244.00
2019-02-22T12:01:02.117Z,1156.00
2019-02-22T12:02:02.137Z,1156.00
2019-02-22T12:03:15.923Z,1144.00
2019-02-22T12:04:02.082Z,1132.00
2019-02-22T12:05:02.076Z,1160.00
2019-02-22T12:06:02.064Z,1152.00
2019-02-22T12:07:02.068Z,1236.00
2019-02-22T12:08:03.608Z,1276.00
2019-02-22T12:09:02.027Z,1144.00
2019-02-22T12:10:02.014Z,1228.00
2019-02-22T12:11:02.007Z,1308.00
2019-02-22T12:12:01.994Z,1364.00
2019-02-22T12:13:01.993Z,1472.00
2019-02-22T12:14:04.164Z,1620.00
2019-02-22T12:15:02.088Z,1624.00
2019-02-22T12:16:01.952Z,1624.00
2019-02-22T12:17:01.942Z,1428.00
2019-02-22T12:18:00.922Z,1288.00
2019-02-22T12:19:00.944Z,1212.00
2019-02-22T12:20:01.937Z,1248.00
2019-02-22T12:21:00.894Z,1140.00
2019-02-22T12:22:00.890Z,1072.00
2019-02-22T12:23:01.880Z,980.00
2019-02-22T12:24:00.857Z,1168.00
2019-02-22T12:25:01.104Z,1252.00
2019-02-22T12:26:01.838Z,1248.00
2019-02-22T12:27:00.830Z,1292.00
2019-02-22T12:28:01.882Z,1004.00
2019-02-22T12:29:00.810Z,1056.00
2019-02-22T12:30:00.865Z,928.00
2019-02-22T12:31:01.780Z,920.00
2019-02-22T12:32:00.773Z,892.00
2019-02-22T12:33:00.763Z,904.00
2019-02-22T12:34:01.754Z,964.00
2019-02-22T12:35:01.802Z,904.00
2019-02-22T12:36:00.728Z,892.00
2019-02-22T12:37:00.720Z,904.00
2019-02-22T12:38:01.703Z,892.00
2019-02-22T12:39:01.768Z,884.00
2019-02-22T12:40:01.694Z,876.00
2019-02-22T12:41:01.694Z,892.00
2019-02-22T12:42:01.658Z,916.00
2019-02-22T12:43:02.557Z,944.00
2019-02-22T12:44:01.646Z,948.00
2019-02-22T12:45:03.257Z,936.00
2019-02-22T12:46:00.654Z,916.00
2019-02-22T12:47:01.653Z,908.00
2019-02-22T12:48:00.689Z,900.00
2019-02-22T12:49:01.614Z,884.00
2019-02-22T12:50:01.594Z,884.00
2019-02-22T12:51:00.573Z,892.00